Patsville, Arkansas
Current Conditions -  °F | °C
As of 10:53 AM on Saturday 22 Nov 2014 (Local Time) from KLLQ Reporting Station
Few Clouds Few Clouds  
Wind Chill: 61°   Ceiling: Unl
Heat Index: 61°   Visibility: 10mi
Dew Point: 48°   Wind: 12mph
Humidity: 62%   Direction: 150°SSE
Pressure: 30.17"   Gusts: NA
Location:  33.37°N, 92.1129°W
Report Text: KLLQ 221653Z AUTO 15010KT 10SM FEW110 16/09 A3017 RMK AO2 SLP216 T01610089
Loading
Personal Weather Stations






























Interactive Weather Map New forecast layout! Learn more

10-Day Weather Forecast

Advertisements
Track Severe Weather on mobile